Time;durP1;ratioP1;P1;durP2;ratioP2;P2;SDS_P1;SDS_P2;PMS_P1;PMS_P2;Temp;Humidity;BMP_temperature;BMP_pressure;BME280_temperature;BME280_humidity;BME280_pressure;Samples;Min_cycle;Max_cycle;Signal;HPM_P1;HPM_P2
2022/06/27 00:00:27;;;;;;;;;;;29.20;39.50;;;;;;5155249;27;19933;-66
2022/06/27 00:02:53;;;;;;;;;;;29.10;39.70;;;;;;5155689;27;19957;-67
2022/06/27 00:05:19;;;;;;;;;;;29.10;40.20;;;;;;5154987;27;19914;-67
2022/06/27 00:07:45;;;;;;;;;;;29.00;40.10;;;;;;5155459;27;19913;-67
2022/06/27 00:10:11;;;;;;;;;;;29.00;40.40;;;;;;5155055;27;19963;-67
2022/06/27 00:12:37;;;;;;;;;;;29.00;40.50;;;;;;5155797;27;20272;-66
2022/06/27 00:15:04;;;;;;;;;;;29.00;40.60;;;;;;5154965;27;20363;-67
2022/06/27 00:17:30;;;;;;;;;;;29.10;40.60;;;;;;5154991;27;19910;-67
2022/06/27 00:19:56;;;;;;;;;;;29.00;40.60;;;;;;5153431;27;19903;-67
2022/06/27 00:22:22;;;;;;;;;;;29.00;40.80;;;;;;5155074;27;20330;-67
2022/06/27 00:24:48;;;;;;;;;;;29.00;40.80;;;;;;5154996;27;19991;-66
2022/06/27 00:27:14;;;;;;;;;;;29.00;40.70;;;;;;5154804;27;19903;-68
2022/06/27 00:29:41;;;;;;;;;;;29.00;40.70;;;;;;5155134;27;19911;-66
2022/06/27 00:32:06;;;;;;;;;;;29.00;40.90;;;;;;5154938;27;20015;-67
2022/06/27 00:34:32;;;;;;;;;;;29.00;40.90;;;;;;5155089;27;19926;-68
2022/06/27 00:36:58;;;;;;;;;;;29.00;40.90;;;;;;5154578;27;19993;-67
2022/06/27 00:39:24;;;;;;;;;;;29.00;40.90;;;;;;5154706;27;19948;-67
2022/06/27 00:41:50;;;;;;;;;;;28.90;41.10;;;;;;5154478;27;19907;-67
2022/06/27 00:44:29;;;;;;;;;;;28.80;41.20;;;;;;5154440;27;19990;-67
2022/06/27 00:46:54;;;;;;;;;;;28.80;41.20;;;;;;5154451;27;20356;-67
2022/06/27 00:49:20;;;;;;;;;;;28.80;41.40;;;;;;5154573;27;19952;-67
2022/06/27 00:51:46;;;;;;;;;;;28.80;41.20;;;;;;5154270;27;19950;-67
2022/06/27 00:54:12;;;;;;;;;;;29.00;41.10;;;;;;5154547;27;19951;-67
2022/06/27 00:56:38;;;;;;;;;;;29.00;41.10;;;;;;5152686;27;19982;-67
2022/06/27 00:59:04;;;;;;;;;;;29.00;40.90;;;;;;5152664;27;19941;-67
2022/06/27 01:01:29;;;;;;;;;;;29.10;40.90;;;;;;5154095;27;19902;-66
2022/06/27 01:04:00;;;;;;;;;;;29.10;40.90;;;;;;5153971;27;19903;-67
2022/06/27 01:06:29;;;;;;;;;;;29.10;40.90;;;;;;5154032;27;19915;-67
2022/06/27 01:08:55;;;;;;;;;;;29.20;40.90;;;;;;5153903;27;19910;-66
2022/06/27 01:11:21;;;;;;;;;;;29.20;40.60;;;;;;5154221;27;19907;-66
2022/06/27 01:13:47;;;;;;;;;;;29.20;40.60;;;;;;5153806;27;19997;-66
2022/06/27 01:16:13;;;;;;;;;;;29.30;40.40;;;;;;5154030;27;19910;-67
2022/06/27 01:18:39;;;;;;;;;;;29.30;40.20;;;;;;5154111;27;19903;-67
2022/06/27 01:21:07;;;;;;;;;;;29.30;40.20;;;;;;5154045;27;19998;-66
2022/06/27 01:23:36;;;;;;;;;;;29.40;40.50;;;;;;5153849;27;19959;-66
2022/06/27 01:26:02;;;;;;;;;;;29.40;40.60;;;;;;5153759;27;19997;-66
2022/06/27 01:28:28;;;;;;;;;;;29.40;40.60;;;;;;5153619;27;19907;-66
2022/06/27 01:30:54;;;;;;;;;;;29.30;40.50;;;;;;5153356;27;19911;-67
2022/06/27 01:33:20;;;;;;;;;;;29.30;40.40;;;;;;5153527;27;20196;-66
2022/06/27 01:35:46;;;;;;;;;;;29.20;40.80;;;;;;5152821;27;20005;-67
2022/06/27 01:38:12;;;;;;;;;;;29.10;40.80;;;;;;5153367;27;19970;-67
2022/06/27 01:40:39;;;;;;;;;;;29.10;40.90;;;;;;5151860;27;19903;-67
2022/06/27 01:43:05;;;;;;;;;;;29.10;40.90;;;;;;5152305;27;19946;-66
2022/06/27 01:45:32;;;;;;;;;;;29.00;40.90;;;;;;5153303;27;19910;-66
2022/06/27 01:47:58;;;;;;;;;;;29.00;40.70;;;;;;5153166;27;19903;-64
2022/06/27 01:50:24;;;;;;;;;;;29.10;40.50;;;;;;5153364;27;19933;-67
2022/06/27 01:52:51;;;;;;;;;;;29.10;40.60;;;;;;5153772;27;19903;-67
2022/06/27 01:55:18;;;;;;;;;;;29.10;40.70;;;;;;5153476;27;19907;-67
2022/06/27 01:57:45;;;;;;;;;;;29.10;40.70;;;;;;5153309;27;19903;-67
2022/06/27 02:00:14;;;;;;;;;;;29.10;40.90;;;;;;5153234;27;20006;-67
2022/06/27 02:02:43;;;;;;;;;;;29.00;41.00;;;;;;5153166;27;19903;-67
2022/06/27 02:05:09;;;;;;;;;;;28.90;41.10;;;;;;5153396;27;20231;-67
2022/06/27 02:07:39;;;;;;;;;;;28.80;41.20;;;;;;5153521;27;19932;-67
2022/06/27 02:10:05;;;;;;;;;;;28.90;41.20;;;;;;5153159;27;19941;-67
2022/06/27 02:12:31;;;;;;;;;;;28.80;41.40;;;;;;5151859;27;20250;-67
2022/06/27 02:14:57;;;;;;;;;;;28.80;41.40;;;;;;5153418;27;20390;-67
2022/06/27 02:17:23;;;;;;;;;;;28.80;41.50;;;;;;5153115;27;20216;-66
2022/06/27 02:19:49;;;;;;;;;;;28.80;41.70;;;;;;5153273;27;19997;-66
2022/06/27 02:22:15;;;;;;;;;;;28.80;41.60;;;;;;5153052;27;20403;-67
2022/06/27 02:24:42;;;;;;;;;;;28.80;41.60;;;;;;5153206;27;19903;-66
2022/06/27 02:27:09;;;;;;;;;;;28.70;41.90;;;;;;5151246;27;19933;-66
2022/06/27 02:29:34;;;;;;;;;;;28.70;41.70;;;;;;5153164;27;19911;-66
2022/06/27 02:32:01;;;;;;;;;;;28.60;41.90;;;;;;5152846;27;19909;-66
2022/06/27 02:34:27;;;;;;;;;;;28.60;42.00;;;;;;5152707;27;19952;-66
2022/06/27 02:36:55;;;;;;;;;;;28.60;41.90;;;;;;5152811;27;20354;-66
2022/06/27 02:39:23;;;;;;;;;;;28.50;42.20;;;;;;5153012;27;19903;-68
2022/06/27 02:41:50;;;;;;;;;;;28.50;42.10;;;;;;5152708;27;19955;-67
2022/06/27 02:44:17;;;;;;;;;;;28.50;42.10;;;;;;5152696;27;19903;-67
2022/06/27 02:46:42;;;;;;;;;;;28.50;41.90;;;;;;5155789;27;19907;-67
2022/06/27 02:49:09;;;;;;;;;;;28.60;41.70;;;;;;5155232;27;19975;-67
2022/06/27 02:51:41;;;;;;;;;;;28.60;41.60;;;;;;5157073;27;20001;-66
2022/06/27 02:54:09;;;;;;;;;;;28.70;41.30;;;;;;5156476;27;20009;-66
2022/06/27 02:56:38;;;;;;;;;;;28.80;41.10;;;;;;5156724;27;19903;-66
2022/06/27 02:59:09;;;;;;;;;;;28.90;41.10;;;;;;5154993;27;20080;-66
2022/06/27 03:01:37;;;;;;;;;;;29.00;40.80;;;;;;5156772;27;19903;-66
2022/06/27 03:04:03;;;;;;;;;;;29.00;40.70;;;;;;5157237;27;19907;-65
2022/06/27 03:06:29;;;;;;;;;;;29.10;40.60;;;;;;5156074;27;19977;-66
2022/06/27 03:08:55;;;;;;;;;;;29.00;40.90;;;;;;5156239;27;19903;-66
2022/06/27 03:11:22;;;;;;;;;;;29.00;40.90;;;;;;5156819;27;20243;-66
2022/06/27 03:13:48;;;;;;;;;;;28.90;40.90;;;;;;5156430;27;20363;-66
2022/06/27 03:16:15;;;;;;;;;;;29.00;41.10;;;;;;5156363;27;19938;-66
2022/06/27 03:18:41;;;;;;;;;;;29.00;41.90;;;;;;5156416;27;19911;-67
2022/06/27 03:21:07;;;;;;;;;;;29.00;41.20;;;;;;5156762;27;19907;-66
2022/06/27 03:23:33;;;;;;;;;;;29.00;41.30;;;;;;5156984;27;19903;-67
2022/06/27 03:25:59;;;;;;;;;;;29.00;41.50;;;;;;5156825;27;20017;-67
2022/06/27 03:28:25;;;;;;;;;;;28.80;42.20;;;;;;5156854;27;19909;-66
2022/06/27 03:30:51;;;;;;;;;;;28.70;42.60;;;;;;5156739;27;19911;-67
2022/06/27 03:33:17;;;;;;;;;;;28.70;42.40;;;;;;5155933;27;20408;-66
2022/06/27 03:35:43;;;;;;;;;;;28.60;42.60;;;;;;5156550;27;19973;-67
2022/06/27 03:38:09;;;;;;;;;;;28.60;42.90;;;;;;5156105;27;20370;-66
2022/06/27 03:40:35;;;;;;;;;;;28.50;43.20;;;;;;5155035;27;19903;-67
2022/06/27 03:43:01;;;;;;;;;;;28.40;43.00;;;;;;5155005;27;19914;-67
2022/06/27 03:45:27;;;;;;;;;;;28.30;43.00;;;;;;5156642;27;19962;-66
2022/06/27 03:47:54;;;;;;;;;;;28.40;43.00;;;;;;5154838;27;19983;-67
2022/06/27 03:50:21;;;;;;;;;;;28.40;42.70;;;;;;5156443;27;19911;-67
2022/06/27 03:52:47;;;;;;;;;;;28.40;43.10;;;;;;5156507;27;19907;-67
2022/06/27 03:55:13;;;;;;;;;;;28.50;42.80;;;;;;5156497;27;20299;-67
2022/06/27 03:57:45;;;;;;;;;;;28.40;42.70;;;;;;5155759;27;19911;-67
2022/06/27 04:00:11;;;;;;;;;;;28.40;42.90;;;;;;5156356;27;19910;-67
2022/06/27 04:02:37;;;;;;;;;;;28.50;42.80;;;;;;5155901;27;19929;-66
2022/06/27 04:05:03;;;;;;;;;;;28.50;42.60;;;;;;5155714;27;19989;-66
2022/06/27 04:07:29;;;;;;;;;;;28.50;42.50;;;;;;5155840;27;19925;-67
2022/06/27 04:09:56;;;;;;;;;;;28.60;42.80;;;;;;5155568;27;19956;-67
2022/06/27 04:12:21;;;;;;;;;;;28.60;42.70;;;;;;5155891;27;19914;-67
2022/06/27 04:14:47;;;;;;;;;;;28.60;42.50;;;;;;5156403;27;19907;-67
2022/06/27 04:17:13;;;;;;;;;;;28.70;43.00;;;;;;5155922;27;20303;-67
2022/06/27 04:19:39;;;;;;;;;;;28.70;43.00;;;;;;5155666;27;19994;-67
2022/06/27 04:22:05;;;;;;;;;;;28.80;43.00;;;;;;5155600;27;20291;-67
2022/06/27 04:24:30;;;;;;;;;;;28.90;42.90;;;;;;5155562;27;19903;-67
2022/06/27 04:26:57;;;;;;;;;;;29.00;42.70;;;;;;5156309;27;19907;-67
2022/06/27 04:29:23;;;;;;;;;;;29.10;42.30;;;;;;5156776;27;19958;-68
2022/06/27 04:31:49;;;;;;;;;;;29.20;41.90;;;;;;5156492;27;20349;-67
2022/06/27 04:34:15;;;;;;;;;;;29.20;42.00;;;;;;5156582;27;19914;-67
2022/06/27 04:36:41;;;;;;;;;;;29.30;41.90;;;;;;5156372;27;19902;-66
2022/06/27 04:39:07;;;;;;;;;;;29.40;41.90;;;;;;5156385;27;20259;-66
2022/06/27 04:41:34;;;;;;;;;;;29.40;41.60;;;;;;5156357;27;19946;-67
2022/06/27 04:44:00;;;;;;;;;;;29.40;41.80;;;;;;5156829;27;19956;-66
2022/06/27 04:46:25;;;;;;;;;;;29.40;41.90;;;;;;5156316;27;20316;-67
2022/06/27 04:48:51;;;;;;;;;;;29.50;41.70;;;;;;5156805;27;20251;-67
2022/06/27 04:51:17;;;;;;;;;;;29.60;41.30;;;;;;5156153;27;19921;-67
2022/06/27 04:53:44;;;;;;;;;;;29.70;41.20;;;;;;5156251;27;20317;-67
2022/06/27 04:56:11;;;;;;;;;;;29.80;41.20;;;;;;5156178;27;19909;-67
2022/06/27 04:58:37;;;;;;;;;;;29.80;41.40;;;;;;5156048;27;19907;-66
2022/06/27 05:01:03;;;;;;;;;;;30.10;41.10;;;;;;5156049;27;19955;-67
2022/06/27 05:03:29;;;;;;;;;;;30.50;40.90;;;;;;5156289;27;19963;-67
2022/06/27 05:05:55;;;;;;;;;;;31.40;40.30;;;;;;5155890;27;20283;-67
2022/06/27 05:08:21;;;;;;;;;;;32.70;39.30;;;;;;5155975;27;20281;-65
2022/06/27 05:10:47;;;;;;;;;;;33.70;37.70;;;;;;5155152;27;19922;-66
2022/06/27 05:13:13;;;;;;;;;;;34.60;37.30;;;;;;5154239;27;19907;-66
2022/06/27 05:15:39;;;;;;;;;;;35.70;35.90;;;;;;5155568;27;19910;-67
2022/06/27 05:18:05;;;;;;;;;;;36.10;34.50;;;;;;5155476;27;19903;-66
2022/06/27 05:20:32;;;;;;;;;;;36.70;34.10;;;;;;5156056;27;19990;-66
2022/06/27 05:23:00;;;;;;;;;;;37.00;33.30;;;;;;5155339;27;19926;-65
2022/06/27 05:25:26;;;;;;;;;;;36.60;33.30;;;;;;5155131;27;19928;-66
2022/06/27 05:27:52;;;;;;;;;;;37.00;33.20;;;;;;5154998;27;19903;-66
2022/06/27 05:30:17;;;;;;;;;;;37.20;32.90;;;;;;5154713;27;20316;-66
2022/06/27 05:32:43;;;;;;;;;;;37.00;32.90;;;;;;5154721;27;19926;-66
2022/06/27 05:35:10;;;;;;;;;;;36.10;33.80;;;;;;5154733;27;20010;-65
2022/06/27 05:37:38;;;;;;;;;;;35.70;34.20;;;;;;5154488;27;19955;-66
2022/06/27 05:40:07;;;;;;;;;;;35.60;34.70;;;;;;5154543;27;19910;-66
2022/06/27 05:42:34;;;;;;;;;;;35.60;34.70;;;;;;5154458;27;19907;-66
2022/06/27 05:45:01;;;;;;;;;;;35.80;34.70;;;;;;5154918;27;19903;-66
2022/06/27 05:47:27;;;;;;;;;;;36.30;34.20;;;;;;5154263;27;19903;-66
2022/06/27 05:49:54;;;;;;;;;;;36.70;34.00;;;;;;5154676;27;19975;-66
2022/06/27 05:52:20;;;;;;;;;;;37.20;33.70;;;;;;5153745;27;20002;-67
2022/06/27 05:54:46;;;;;;;;;;;37.50;33.40;;;;;;5154303;27;19954;-67
2022/06/27 05:57:14;;;;;;;;;;;37.40;33.50;;;;;;5153952;27;19910;-67
2022/06/27 05:59:41;;;;;;;;;;;37.00;33.80;;;;;;5153351;27;19942;-66
2022/06/27 06:02:07;;;;;;;;;;;36.60;34.40;;;;;;5153734;27;20005;-66
2022/06/27 06:04:34;;;;;;;;;;;36.60;34.40;;;;;;5153876;27;19987;-66
2022/06/27 06:07:00;;;;;;;;;;;36.30;34.30;;;;;;5153549;27;20323;-66
2022/06/27 06:09:26;;;;;;;;;;;36.40;34.30;;;;;;5154060;27;19959;-66
2022/06/27 06:11:53;;;;;;;;;;;36.60;34.70;;;;;;5154063;27;19947;-66
2022/06/27 06:14:21;;;;;;;;;;;36.70;34.70;;;;;;5154384;27;19903;-66
2022/06/27 06:16:48;;;;;;;;;;;37.40;34.10;;;;;;5153751;27;19907;-66
2022/06/27 06:19:14;;;;;;;;;;;38.40;33.10;;;;;;5153890;27;19910;-66
2022/06/27 06:21:40;;;;;;;;;;;39.10;32.80;;;;;;5157018;27;19903;-66
2022/06/27 06:24:06;;;;;;;;;;;38.60;32.90;;;;;;5158244;27;20009;-67
2022/06/27 06:26:32;;;;;;;;;;;38.40;33.60;;;;;;5158770;27;19989;-67
2022/06/27 06:29:05;;;;;;;;;;;39.10;32.80;;;;;;5158040;27;20297;-66
2022/06/27 06:31:31;;;;;;;;;;;39.20;32.40;;;;;;5158043;27;19907;-67
2022/06/27 06:33:57;;;;;;;;;;;39.50;32.60;;;;;;5158572;27;20022;-67
2022/06/27 06:36:23;;;;;;;;;;;39.90;33.00;;;;;;5158209;27;19903;-67
2022/06/27 06:38:49;;;;;;;;;;;40.50;32.20;;;;;;5158164;27;19914;-66
2022/06/27 06:41:15;;;;;;;;;;;41.10;31.70;;;;;;5157759;27;19955;-67
2022/06/27 06:43:42;;;;;;;;;;;41.90;31.40;;;;;;5156476;27;20311;-67
2022/06/27 06:46:09;;;;;;;;;;;42.70;31.00;;;;;;5157554;27;19907;-66
2022/06/27 06:48:37;;;;;;;;;;;43.80;30.10;;;;;;5157490;27;20259;-66
2022/06/27 06:51:04;;;;;;;;;;;44.50;29.50;;;;;;5157789;27;19959;-67
2022/06/27 06:53:30;;;;;;;;;;;45.00;29.50;;;;;;5157959;27;20235;-67
2022/06/27 06:55:57;;;;;;;;;;;46.10;28.80;;;;;;5157868;27;19903;-66
2022/06/27 06:58:25;;;;;;;;;;;46.50;28.60;;;;;;5156167;27;19999;-67
2022/06/27 07:00:51;;;;;;;;;;;47.40;28.30;;;;;;5157437;27;20423;-66
2022/06/27 07:03:18;;;;;;;;;;;48.00;27.60;;;;;;5157429;27;20115;-67
2022/06/27 07:05:45;;;;;;;;;;;48.00;27.50;;;;;;5157018;27;19922;-67
2022/06/27 07:08:12;;;;;;;;;;;48.40;27.20;;;;;;5157325;27;19910;-67
2022/06/27 07:10:38;;;;;;;;;;;48.20;27.00;;;;;;5157116;27;19917;-66
2022/06/27 07:13:04;;;;;;;;;;;48.70;27.20;;;;;;5157540;27;19903;-67
2022/06/27 07:15:33;;;;;;;;;;;49.10;27.00;;;;;;5157328;27;19910;-67
2022/06/27 07:18:00;;;;;;;;;;;49.40;26.00;;;;;;5157162;27;19910;-67
2022/06/27 07:20:26;;;;;;;;;;;49.10;26.20;;;;;;5157253;27;19924;-68
2022/06/27 07:22:52;;;;;;;;;;;47.70;26.20;;;;;;5157588;27;19903;-67
2022/06/27 07:25:18;;;;;;;;;;;46.40;27.00;;;;;;5156882;27;19929;-67
2022/06/27 07:27:45;;;;;;;;;;;44.90;27.80;;;;;;5157055;27;19903;-67
2022/06/27 07:30:12;;;;;;;;;;;43.60;28.60;;;;;;5156651;27;20104;-66
2022/06/27 07:32:41;;;;;;;;;;;42.80;28.90;;;;;;5154139;27;19918;-66
2022/06/27 07:35:11;;;;;;;;;;;42.50;29.60;;;;;;5156969;27;20236;-67
2022/06/27 07:37:40;;;;;;;;;;;42.10;29.10;;;;;;5156874;27;19967;-66
2022/06/27 07:40:06;;;;;;;;;;;41.30;31.50;;;;;;5156941;27;20055;-67
2022/06/27 07:42:32;;;;;;;;;;;40.90;32.80;;;;;;5156830;27;19929;-66
2022/06/27 07:44:58;;;;;;;;;;;41.00;33.90;;;;;;5156902;27;20283;-66
2022/06/27 07:47:24;;;;;;;;;;;41.40;35.30;;;;;;5156909;27;19903;-67
2022/06/27 07:49:50;;;;;;;;;;;41.40;35.50;;;;;;5156569;27;19918;-67
2022/06/27 07:52:16;;;;;;;;;;;41.60;35.60;;;;;;5156002;27;20343;-66
2022/06/27 07:54:42;;;;;;;;;;;41.80;34.70;;;;;;5157125;27;19971;-67
2022/06/27 07:57:08;;;;;;;;;;;41.90;34.20;;;;;;5156480;27;20385;-67
2022/06/27 07:59:34;;;;;;;;;;;41.90;34.40;;;;;;5156337;27;19909;-66
2022/06/27 08:02:00;;;;;;;;;;;41.80;33.80;;;;;;5156594;27;19934;-67
2022/06/27 08:04:26;;;;;;;;;;;41.90;33.40;;;;;;5156462;27;19903;-67
2022/06/27 08:06:53;;;;;;;;;;;42.10;34.40;;;;;;5154727;27;20351;-67
2022/06/27 08:09:20;;;;;;;;;;;42.20;34.70;;;;;;5155992;27;20451;-67
2022/06/27 08:11:46;;;;;;;;;;;42.30;35.80;;;;;;5155338;27;19903;-67
2022/06/27 08:14:16;;;;;;;;;;;42.30;35.10;;;;;;5155463;27;19926;-66
2022/06/27 08:16:42;;;;;;;;;;;42.30;35.40;;;;;;5156137;27;19906;-68
2022/06/27 08:19:09;;;;;;;;;;;42.30;34.50;;;;;;5156617;27;20462;-67
2022/06/27 08:21:35;;;;;;;;;;;42.30;35.10;;;;;;5155769;27;19993;-67
2022/06/27 08:24:03;;;;;;;;;;;42.20;34.80;;;;;;5155749;27;20390;-67
2022/06/27 08:26:29;;;;;;;;;;;42.20;34.80;;;;;;5156002;27;19915;-67
2022/06/27 08:28:56;;;;;;;;;;;41.90;35.00;;;;;;5155776;27;19910;-67
2022/06/27 08:31:22;;;;;;;;;;;41.80;35.40;;;;;;5155547;27;19911;-67
2022/06/27 08:33:51;;;;;;;;;;;41.80;35.00;;;;;;5155965;27;19907;-67
2022/06/27 08:36:17;;;;;;;;;;;41.90;34.60;;;;;;5155712;27;19983;-66
2022/06/27 08:38:48;;;;;;;;;;;41.80;34.80;;;;;;5155302;27;19950;-66
2022/06/27 08:41:15;;;;;;;;;;;41.50;34.60;;;;;;5156211;27;20005;-67
2022/06/27 08:43:41;;;;;;;;;;;41.50;34.60;;;;;;5155517;27;19990;-67
2022/06/27 08:46:08;;;;;;;;;;;41.50;33.90;;;;;;5155252;27;19911;-66
2022/06/27 08:48:39;;;;;;;;;;;41.50;33.70;;;;;;5155212;27;20270;-67
2022/06/27 08:51:06;;;;;;;;;;;41.50;34.00;;;;;;5155253;27;20390;-66
2022/06/27 08:53:32;;;;;;;;;;;41.20;34.90;;;;;;5155008;27;19903;-66
2022/06/27 08:55:58;;;;;;;;;;;40.70;33.50;;;;;;5154987;27;20300;-68
2022/06/27 08:58:25;;;;;;;;;;;40.60;34.00;;;;;;5153719;27;19952;-66
2022/06/27 09:00:51;;;;;;;;;;;40.80;34.10;;;;;;5155003;27;19902;-66
2022/06/27 09:03:18;;;;;;;;;;;40.40;35.60;;;;;;5155454;27;20272;-66
2022/06/27 09:05:53;;;;;;;;;;;40.00;34.30;;;;;;5154842;27;19922;-67
2022/06/27 09:08:20;;;;;;;;;;;40.00;34.70;;;;;;5155131;27;19911;-66
2022/06/27 09:10:46;;;;;;;;;;;40.00;34.00;;;;;;5155159;27;19958;-67
2022/06/27 09:13:16;;;;;;;;;;;40.20;35.30;;;;;;5154926;27;19928;-67
2022/06/27 09:15:46;;;;;;;;;;;40.30;34.70;;;;;;5155116;27;19951;-67
2022/06/27 09:18:13;;;;;;;;;;;40.30;33.50;;;;;;5154444;27;19909;-67
2022/06/27 09:20:47;;;;;;;;;;;40.40;33.00;;;;;;5154667;27;20002;-67
2022/06/27 09:23:28;;;;;;;;;;;40.30;32.10;;;;;;5154606;27;19923;-67
2022/06/27 09:25:58;;;;;;;;;;;40.30;33.00;;;;;;5154456;27;19922;-67
2022/06/27 09:28:44;;;;;;;;;;;40.00;33.60;;;;;;5154418;27;19903;-67
2022/06/27 09:31:11;;;;;;;;;;;39.60;35.20;;;;;;5154238;27;19922;-67
2022/06/27 09:33:40;;;;;;;;;;;39.60;35.50;;;;;;5154172;27;19903;-67
2022/06/27 09:36:11;;;;;;;;;;;39.70;35.50;;;;;;5154253;27;19903;-67
2022/06/27 09:38:44;;;;;;;;;;;39.80;34.90;;;;;;5154671;27;19903;-67
2022/06/27 09:41:11;;;;;;;;;;;39.70;34.60;;;;;;5152580;27;20072;-66
2022/06/27 09:43:47;;;;;;;;;;;39.80;34.60;;;;;;5153761;27;20358;-67
2022/06/27 09:46:15;;;;;;;;;;;39.80;35.90;;;;;;5154201;27;19999;-66
2022/06/27 09:48:43;;;;;;;;;;;39.80;36.00;;;;;;5154320;27;19903;-66
2022/06/27 09:51:10;;;;;;;;;;;39.70;35.10;;;;;;5152087;27;19950;-66
2022/06/27 09:53:40;;;;;;;;;;;39.80;34.90;;;;;;5153689;27;19917;-67
2022/06/27 09:56:08;;;;;;;;;;;39.70;34.90;;;;;;5153263;27;19997;-66
2022/06/27 09:58:37;;;;;;;;;;;39.40;34.60;;;;;;5153853;27;20359;-67
2022/06/27 10:01:04;;;;;;;;;;;39.20;34.70;;;;;;5154264;27;20006;-66
2022/06/27 10:03:32;;;;;;;;;;;39.20;34.10;;;;;;5153853;27;19914;-66
2022/06/27 10:05:58;;;;;;;;;;;39.30;33.50;;;;;;5153504;27;19948;-67
2022/06/27 10:08:24;;;;;;;;;;;39.10;32.80;;;;;;5153554;27;19939;-66
2022/06/27 10:11:08;;;;;;;;;;;38.80;33.30;;;;;;5153665;27;19911;-67
2022/06/27 10:13:38;;;;;;;;;;;38.70;33.20;;;;;;5152994;27;19954;-67
2022/06/27 10:16:12;;;;;;;;;;;38.90;32.80;;;;;;5153707;27;19910;-67
2022/06/27 10:18:56;;;;;;;;;;;38.70;33.60;;;;;;5153675;27;19915;-68
2022/06/27 10:21:48;;;;;;;;;;;38.70;35.10;;;;;;5154406;27;20347;-67
2022/06/27 10:24:26;;;;;;;;;;;38.60;34.90;;;;;;5149834;27;19903;-68
2022/06/27 10:26:56;;;;;;;;;;;38.60;34.50;;;;;;5153986;27;19910;-67
2022/06/27 10:29:33;;;;;;;;;;;38.80;35.00;;;;;;5153962;27;19904;-66
2022/06/27 10:32:00;;;;;;;;;;;38.60;35.20;;;;;;5153819;27;19907;-67
2022/06/27 10:34:46;;;;;;;;;;;38.50;35.00;;;;;;5152479;27;19910;-67
2022/06/27 10:37:24;;;;;;;;;;;38.40;36.00;;;;;;5138741;27;19925;-67
2022/06/27 10:39:53;;;;;;;;;;;38.40;36.30;;;;;;5153713;27;20307;-67
2022/06/27 10:42:37;;;;;;;;;;;38.40;36.70;;;;;;5153939;27;19918;-66
2022/06/27 10:45:22;;;;;;;;;;;38.40;34.90;;;;;;5153287;27;19903;-67
2022/06/27 10:47:52;;;;;;;;;;;38.40;35.60;;;;;;5153458;27;20032;-67
2022/06/27 10:50:19;;;;;;;;;;;38.10;34.80;;;;;;5153576;27;20014;-67
2022/06/27 10:52:45;;;;;;;;;;;38.00;35.40;;;;;;5153826;27;19907;-67
2022/06/27 10:55:25;;;;;;;;;;;38.00;35.50;;;;;;5153819;27;20370;-66
2022/06/27 10:57:52;;;;;;;;;;;38.10;35.90;;;;;;5154305;27;20261;-66
2022/06/27 11:00:37;;;;;;;;;;;38.20;36.30;;;;;;5152400;27;20365;-66
2022/06/27 11:03:03;;;;;;;;;;;38.20;36.40;;;;;;5154126;27;19998;-66
2022/06/27 11:05:29;;;;;;;;;;;38.20;35.80;;;;;;5153671;27;19911;-65
2022/06/27 11:07:55;;;;;;;;;;;38.30;35.30;;;;;;5155824;27;19918;-66
2022/06/27 11:10:21;;;;;;;;;;;38.20;35.90;;;;;;5157420;27;19911;-66
2022/06/27 11:12:47;;;;;;;;;;;38.40;36.50;;;;;;5158034;27;19903;-67
2022/06/27 11:15:13;;;;;;;;;;;38.40;36.40;;;;;;5157405;27;19914;-67
2022/06/27 11:17:41;;;;;;;;;;;38.50;36.60;;;;;;5157244;27;19914;-67
2022/06/27 11:20:13;;;;;;;;;;;38.40;36.70;;;;;;5156009;27;19903;-67
2022/06/27 11:22:39;;;;;;;;;;;38.60;35.90;;;;;;5157186;27;19926;-66
2022/06/27 11:25:06;;;;;;;;;;;38.30;35.20;;;;;;5157479;27;19942;-67
2022/06/27 11:27:48;;;;;;;;;;;38.20;36.40;;;;;;5158047;27;20312;-67
2022/06/27 11:33:15;;;;;;;;;;;38.30;36.30;;;;;;5157802;27;19913;-67
2022/06/27 11:35:41;;;;;;;;;;;38.40;35.70;;;;;;5157147;27;19957;-66
2022/06/27 11:38:07;;;;;;;;;;;38.50;36.50;;;;;;5157581;27;20375;-67
2022/06/27 11:40:33;;;;;;;;;;;38.60;36.50;;;;;;5157298;27;19903;-67
2022/06/27 11:42:59;;;;;;;;;;;38.60;36.60;;;;;;5157411;27;19906;-67
2022/06/27 11:45:24;;;;;;;;;;;38.70;36.50;;;;;;5156801;27;19949;-67
2022/06/27 11:47:50;;;;;;;;;;;38.50;37.50;;;;;;5156828;27;19933;-66
2022/06/27 11:50:17;;;;;;;;;;;38.50;37.00;;;;;;5156617;27;19910;-66
2022/06/27 11:52:45;;;;;;;;;;;38.60;37.00;;;;;;5156962;27;19902;-67
2022/06/27 11:55:26;;;;;;;;;;;38.60;36.50;;;;;;5156762;27;19904;-66
2022/06/27 11:57:56;;;;;;;;;;;38.60;36.20;;;;;;5156637;27;19965;-67
2022/06/27 12:00:23;;;;;;;;;;;38.70;36.10;;;;;;5157494;27;19903;-66
2022/06/27 12:02:52;;;;;;;;;;;38.70;36.40;;;;;;5156362;27;19907;-66
2022/06/27 12:05:20;;;;;;;;;;;38.60;36.80;;;;;;5156684;27;19951;-67
2022/06/27 12:07:53;;;;;;;;;;;38.60;37.00;;;;;;5156682;27;20009;-67
2022/06/27 12:10:37;;;;;;;;;;;38.50;37.60;;;;;;5156411;27;20018;-67
2022/06/27 12:13:04;;;;;;;;;;;38.70;38.00;;;;;;5156882;27;20053;-67
2022/06/27 12:15:29;;;;;;;;;;;38.70;37.70;;;;;;5156086;27;19946;-67
2022/06/27 12:17:59;;;;;;;;;;;38.80;37.80;;;;;;5156077;27;19934;-67
2022/06/27 12:20:26;;;;;;;;;;;38.50;37.80;;;;;;5156146;27;19903;-67
2022/06/27 12:22:52;;;;;;;;;;;38.50;37.20;;;;;;5156672;27;19903;-67
2022/06/27 12:25:18;;;;;;;;;;;38.60;37.30;;;;;;5156082;27;19932;-67
2022/06/27 12:27:44;;;;;;;;;;;38.30;37.60;;;;;;5156041;27;19907;-66
2022/06/27 12:30:11;;;;;;;;;;;38.20;37.30;;;;;;5156266;27;20361;-67
2022/06/27 12:32:37;;;;;;;;;;;38.30;37.40;;;;;;5154698;27;19914;-66
2022/06/27 12:35:03;;;;;;;;;;;38.40;36.60;;;;;;5156278;27;19903;-66
2022/06/27 12:37:29;;;;;;;;;;;38.40;36.90;;;;;;5155915;27;19907;-67
2022/06/27 12:39:55;;;;;;;;;;;38.20;36.70;;;;;;5155835;27;19913;-67
2022/06/27 12:42:21;;;;;;;;;;;38.10;37.10;;;;;;5156124;27;19957;-67
2022/06/27 12:44:47;;;;;;;;;;;38.10;35.80;;;;;;5155938;27;19942;-67
2022/06/27 12:47:13;;;;;;;;;;;38.10;37.00;;;;;;5156146;27;20005;-67
2022/06/27 12:49:38;;;;;;;;;;;38.20;36.50;;;;;;5155470;27;19947;-67
2022/06/27 12:52:04;;;;;;;;;;;38.30;37.50;;;;;;5156017;27;19907;-67
2022/06/27 12:54:30;;;;;;;;;;;38.40;37.90;;;;;;5155884;27;19911;-67
2022/06/27 12:56:57;;;;;;;;;;;38.40;38.20;;;;;;5155722;27;19928;-67
2022/06/27 12:59:22;;;;;;;;;;;38.20;37.80;;;;;;5155319;27;19903;-67
2022/06/27 13:01:49;;;;;;;;;;;38.30;38.10;;;;;;5154507;27;19914;-67
2022/06/27 13:04:14;;;;;;;;;;;38.10;37.90;;;;;;5154498;27;19903;-66
2022/06/27 13:06:40;;;;;;;;;;;38.20;38.10;;;;;;5154400;27;20280;-68
2022/06/27 13:09:06;;;;;;;;;;;38.20;38.30;;;;;;5154859;27;19916;-66
2022/06/27 13:11:32;;;;;;;;;;;38.10;38.20;;;;;;5152593;27;20322;-66
2022/06/27 13:13:58;;;;;;;;;;;38.30;38.30;;;;;;5154914;27;19913;-67
2022/06/27 13:16:24;;;;;;;;;;;38.40;37.70;;;;;;5154578;27;19910;-66
2022/06/27 13:18:49;;;;;;;;;;;38.50;37.40;;;;;;5155242;27;19971;-66
2022/06/27 13:21:15;;;;;;;;;;;38.40;37.20;;;;;;5155094;27;19903;-67
2022/06/27 13:23:41;;;;;;;;;;;38.50;37.20;;;;;;5155134;27;19910;-67
2022/06/27 13:26:07;;;;;;;;;;;38.50;38.40;;;;;;5155363;27;19903;-66
2022/06/27 13:28:34;;;;;;;;;;;38.50;37.90;;;;;;5154969;27;20431;-66
2022/06/27 13:30:59;;;;;;;;;;;38.40;38.20;;;;;;5154140;27;19915;-67
2022/06/27 13:33:25;;;;;;;;;;;38.40;38.40;;;;;;5154954;27;19903;-66
2022/06/27 13:35:51;;;;;;;;;;;38.40;38.50;;;;;;5155299;27;20339;-66
2022/06/27 13:38:17;;;;;;;;;;;38.10;37.80;;;;;;5155404;27;19903;-67
2022/06/27 13:40:43;;;;;;;;;;;38.30;37.60;;;;;;5154883;27;19966;-66
2022/06/27 13:43:08;;;;;;;;;;;38.00;37.60;;;;;;5154785;27;19971;-67
2022/06/27 13:45:34;;;;;;;;;;;37.90;39.40;;;;;;5153430;27;20345;-66
2022/06/27 13:48:01;;;;;;;;;;;37.90;39.60;;;;;;5154862;27;19903;-66
2022/06/27 13:50:28;;;;;;;;;;;37.90;39.40;;;;;;5154726;27;19918;-66
2022/06/27 13:52:54;;;;;;;;;;;37.80;39.60;;;;;;5154676;27;19938;-66
2022/06/27 13:55:19;;;;;;;;;;;37.90;39.20;;;;;;5155198;27;19939;-66
2022/06/27 13:57:45;;;;;;;;;;;37.70;39.00;;;;;;5155203;27;20453;-67
2022/06/27 14:00:11;;;;;;;;;;;37.80;38.50;;;;;;5154519;27;19910;-66
2022/06/27 14:02:38;;;;;;;;;;;37.80;38.70;;;;;;5154450;27;19903;-67
2022/06/27 14:05:04;;;;;;;;;;;37.90;38.50;;;;;;5153310;27;19903;-66
2022/06/27 14:07:36;;;;;;;;;;;37.90;38.30;;;;;;5153946;27;20272;-66
2022/06/27 14:10:03;;;;;;;;;;;37.90;38.10;;;;;;5154110;27;20323;-66
2022/06/27 14:12:28;;;;;;;;;;;38.00;37.70;;;;;;5152192;27;19910;-67
2022/06/27 14:14:54;;;;;;;;;;;38.20;38.00;;;;;;5154359;27;19910;-67
2022/06/27 14:17:21;;;;;;;;;;;38.20;38.00;;;;;;5153834;27;19903;-66
2022/06/27 14:19:47;;;;;;;;;;;37.90;37.80;;;;;;5153908;27;19925;-66